sensor_id;sensor_type;location;lat;lon;timestamp;P1;durP1;ratioP1;P2;durP2;ratioP2
56419;SDS011;42323;52.170;7.538;2023-04-25T00:00:51;8.82;;;2.67;;
56419;SDS011;42323;52.170;7.538;2023-04-25T00:03:18;8.10;;;2.92;;
56419;SDS011;42323;52.170;7.538;2023-04-25T00:05:45;5.90;;;3.10;;
56419;SDS011;42323;52.170;7.538;2023-04-25T00:08:12;7.15;;;2.80;;
56419;SDS011;42323;52.170;7.538;2023-04-25T00:10:38;5.18;;;2.67;;
56419;SDS011;42323;52.170;7.538;2023-04-25T00:13:05;4.93;;;2.33;;
56419;SDS011;42323;52.170;7.538;2023-04-25T00:15:32;5.63;;;2.65;;
56419;SDS011;42323;52.170;7.538;2023-04-25T00:17:59;4.43;;;2.83;;
56419;SDS011;42323;52.170;7.538;2023-04-25T00:20:25;6.15;;;2.50;;
56419;SDS011;42323;52.170;7.538;2023-04-25T00:22:52;4.28;;;2.55;;
56419;SDS011;42323;52.170;7.538;2023-04-25T00:25:19;4.95;;;2.67;;
56419;SDS011;42323;52.170;7.538;2023-04-25T00:27:46;5.88;;;2.65;;
56419;SDS011;42323;52.170;7.538;2023-04-25T00:30:12;8.27;;;3.10;;
56419;SDS011;42323;52.170;7.538;2023-04-25T00:32:40;7.03;;;2.47;;
56419;SDS011;42323;52.170;7.538;2023-04-25T00:35:06;5.10;;;2.80;;
56419;SDS011;42323;52.170;7.538;2023-04-25T00:37:33;5.90;;;2.70;;
56419;SDS011;42323;52.170;7.538;2023-04-25T00:40:00;7.95;;;3.17;;
56419;SDS011;42323;52.170;7.538;2023-04-25T00:42:26;6.03;;;2.72;;
56419;SDS011;42323;52.170;7.538;2023-04-25T00:44:54;7.05;;;3.58;;
56419;SDS011;42323;52.170;7.538;2023-04-25T00:47:21;9.27;;;3.33;;
56419;SDS011;42323;52.170;7.538;2023-04-25T00:49:49;5.15;;;3.05;;
56419;SDS011;42323;52.170;7.538;2023-04-25T00:52:15;5.35;;;3.13;;
56419;SDS011;42323;52.170;7.538;2023-04-25T00:54:42;11.02;;;3.42;;
56419;SDS011;42323;52.170;7.538;2023-04-25T00:57:09;6.13;;;3.20;;
56419;SDS011;42323;52.170;7.538;2023-04-25T00:59:37;8.95;;;3.28;;
56419;SDS011;42323;52.170;7.538;2023-04-25T01:02:04;6.68;;;2.83;;
56419;SDS011;42323;52.170;7.538;2023-04-25T01:04:31;4.75;;;3.25;;
56419;SDS011;42323;52.170;7.538;2023-04-25T01:06:58;6.95;;;3.13;;
56419;SDS011;42323;52.170;7.538;2023-04-25T01:09:24;6.32;;;3.15;;
56419;SDS011;42323;52.170;7.538;2023-04-25T01:11:52;4.07;;;2.88;;
56419;SDS011;42323;52.170;7.538;2023-04-25T01:14:18;9.30;;;3.10;;
56419;SDS011;42323;52.170;7.538;2023-04-25T01:16:45;7.00;;;3.60;;
56419;SDS011;42323;52.170;7.538;2023-04-25T01:19:12;6.97;;;2.80;;
56419;SDS011;42323;52.170;7.538;2023-04-25T01:21:43;6.38;;;2.97;;
56419;SDS011;42323;52.170;7.538;2023-04-25T01:24:10;9.82;;;3.42;;
56419;SDS011;42323;52.170;7.538;2023-04-25T01:26:36;6.82;;;2.88;;
56419;SDS011;42323;52.170;7.538;2023-04-25T01:29:04;11.52;;;3.38;;
56419;SDS011;42323;52.170;7.538;2023-04-25T01:31:31;13.48;;;4.00;;
56419;SDS011;42323;52.170;7.538;2023-04-25T01:33:58;6.53;;;3.70;;
56419;SDS011;42323;52.170;7.538;2023-04-25T01:36:24;6.80;;;3.22;;
56419;SDS011;42323;52.170;7.538;2023-04-25T01:38:51;6.18;;;2.88;;
56419;SDS011;42323;52.170;7.538;2023-04-25T01:41:18;8.48;;;2.88;;
56419;SDS011;42323;52.170;7.538;2023-04-25T01:43:45;4.75;;;3.10;;
56419;SDS011;42323;52.170;7.538;2023-04-25T01:46:12;10.02;;;3.35;;
56419;SDS011;42323;52.170;7.538;2023-04-25T01:48:39;7.57;;;2.65;;
56419;SDS011;42323;52.170;7.538;2023-04-25T01:51:05;5.68;;;3.20;;
56419;SDS011;42323;52.170;7.538;2023-04-25T01:53:32;11.60;;;3.20;;
56419;SDS011;42323;52.170;7.538;2023-04-25T01:55:59;10.00;;;3.65;;
56419;SDS011;42323;52.170;7.538;2023-04-25T01:58:26;8.65;;;2.97;;
56419;SDS011;42323;52.170;7.538;2023-04-25T02:00:53;5.55;;;3.05;;
56419;SDS011;42323;52.170;7.538;2023-04-25T02:03:19;10.48;;;3.60;;
56419;SDS011;42323;52.170;7.538;2023-04-25T02:05:46;8.30;;;2.72;;
56419;SDS011;42323;52.170;7.538;2023-04-25T02:08:13;7.80;;;3.03;;
56419;SDS011;42323;52.170;7.538;2023-04-25T02:10:40;7.30;;;3.08;;
56419;SDS011;42323;52.170;7.538;2023-04-25T02:13:06;7.07;;;2.88;;
56419;SDS011;42323;52.170;7.538;2023-04-25T02:15:33;7.55;;;2.88;;
56419;SDS011;42323;52.170;7.538;2023-04-25T02:17:59;9.73;;;2.83;;
56419;SDS011;42323;52.170;7.538;2023-04-25T02:20:27;8.98;;;3.00;;
56419;SDS011;42323;52.170;7.538;2023-04-25T02:22:55;6.97;;;2.60;;
56419;SDS011;42323;52.170;7.538;2023-04-25T02:25:21;13.15;;;3.22;;
56419;SDS011;42323;52.170;7.538;2023-04-25T02:27:48;8.70;;;2.90;;
56419;SDS011;42323;52.170;7.538;2023-04-25T02:30:15;7.28;;;3.30;;
56419;SDS011;42323;52.170;7.538;2023-04-25T02:32:41;6.03;;;2.65;;
56419;SDS011;42323;52.170;7.538;2023-04-25T02:35:08;7.05;;;2.55;;
56419;SDS011;42323;52.170;7.538;2023-04-25T02:37:36;9.55;;;3.05;;
56419;SDS011;42323;52.170;7.538;2023-04-25T02:40:04;7.97;;;3.10;;
56419;SDS011;42323;52.170;7.538;2023-04-25T02:42:31;16.17;;;3.63;;
56419;SDS011;42323;52.170;7.538;2023-04-25T02:44:58;8.73;;;3.22;;
56419;SDS011;42323;52.170;7.538;2023-04-25T02:47:25;9.60;;;2.95;;
56419;SDS011;42323;52.170;7.538;2023-04-25T02:49:51;13.73;;;3.30;;
56419;SDS011;42323;52.170;7.538;2023-04-25T02:52:18;8.75;;;3.05;;
56419;SDS011;42323;52.170;7.538;2023-04-25T02:54:44;8.00;;;3.30;;
56419;SDS011;42323;52.170;7.538;2023-04-25T02:57:11;12.55;;;3.22;;
56419;SDS011;42323;52.170;7.538;2023-04-25T02:59:37;10.05;;;3.50;;
56419;SDS011;42323;52.170;7.538;2023-04-25T03:02:04;8.27;;;3.03;;
56419;SDS011;42323;52.170;7.538;2023-04-25T03:04:31;9.43;;;3.05;;
56419;SDS011;42323;52.170;7.538;2023-04-25T03:06:57;7.18;;;3.03;;
56419;SDS011;42323;52.170;7.538;2023-04-25T03:09:24;10.15;;;3.33;;
56419;SDS011;42323;52.170;7.538;2023-04-25T03:11:51;4.43;;;2.65;;
56419;SDS011;42323;52.170;7.538;2023-04-25T03:14:17;9.23;;;3.70;;
56419;SDS011;42323;52.170;7.538;2023-04-25T03:16:44;9.60;;;3.70;;
56419;SDS011;42323;52.170;7.538;2023-04-25T03:19:11;13.75;;;3.60;;
56419;SDS011;42323;52.170;7.538;2023-04-25T03:21:37;7.18;;;3.33;;
56419;SDS011;42323;52.170;7.538;2023-04-25T03:24:04;7.47;;;3.22;;
56419;SDS011;42323;52.170;7.538;2023-04-25T03:26:31;7.25;;;2.85;;
56419;SDS011;42323;52.170;7.538;2023-04-25T03:28:57;9.18;;;3.25;;
56419;SDS011;42323;52.170;7.538;2023-04-25T03:31:24;9.13;;;3.20;;
56419;SDS011;42323;52.170;7.538;2023-04-25T03:33:51;8.77;;;3.17;;
56419;SDS011;42323;52.170;7.538;2023-04-25T03:36:17;10.73;;;3.30;;
56419;SDS011;42323;52.170;7.538;2023-04-25T03:38:44;11.32;;;3.20;;
56419;SDS011;42323;52.170;7.538;2023-04-25T03:41:11;11.35;;;3.03;;
56419;SDS011;42323;52.170;7.538;2023-04-25T03:43:37;7.50;;;3.10;;
56419;SDS011;42323;52.170;7.538;2023-04-25T03:46:04;6.82;;;3.08;;
56419;SDS011;42323;52.170;7.538;2023-04-25T03:48:30;7.07;;;3.00;;
56419;SDS011;42323;52.170;7.538;2023-04-25T03:50:57;7.70;;;2.78;;
56419;SDS011;42323;52.170;7.538;2023-04-25T03:53:24;5.90;;;2.90;;
56419;SDS011;42323;52.170;7.538;2023-04-25T03:55:50;5.05;;;2.88;;
56419;SDS011;42323;52.170;7.538;2023-04-25T03:58:17;7.60;;;3.20;;
56419;SDS011;42323;52.170;7.538;2023-04-25T04:00:44;12.85;;;3.65;;
56419;SDS011;42323;52.170;7.538;2023-04-25T04:03:11;12.48;;;3.45;;
56419;SDS011;42323;52.170;7.538;2023-04-25T04:05:37;4.97;;;2.50;;
56419;SDS011;42323;52.170;7.538;2023-04-25T04:08:06;7.13;;;2.90;;
56419;SDS011;42323;52.170;7.538;2023-04-25T04:10:33;12.50;;;3.17;;
56419;SDS011;42323;52.170;7.538;2023-04-25T04:13:00;7.53;;;3.40;;
56419;SDS011;42323;52.170;7.538;2023-04-25T04:15:26;6.75;;;4.15;;
56419;SDS011;42323;52.170;7.538;2023-04-25T04:17:53;8.75;;;3.58;;
56419;SDS011;42323;52.170;7.538;2023-04-25T04:20:21;7.88;;;3.55;;
56419;SDS011;42323;52.170;7.538;2023-04-25T04:22:47;9.38;;;4.40;;
56419;SDS011;42323;52.170;7.538;2023-04-25T04:25:14;5.10;;;2.88;;
56419;SDS011;42323;52.170;7.538;2023-04-25T04:27:40;9.48;;;3.30;;
56419;SDS011;42323;52.170;7.538;2023-04-25T04:30:07;11.68;;;3.30;;
56419;SDS011;42323;52.170;7.538;2023-04-25T04:32:34;7.47;;;2.72;;
56419;SDS011;42323;52.170;7.538;2023-04-25T04:35:04;11.43;;;2.92;;
56419;SDS011;42323;52.170;7.538;2023-04-25T04:37:32;6.25;;;2.95;;
56419;SDS011;42323;52.170;7.538;2023-04-25T04:39:59;5.95;;;3.20;;
56419;SDS011;42323;52.170;7.538;2023-04-25T04:42:31;9.18;;;3.55;;
56419;SDS011;42323;52.170;7.538;2023-04-25T04:44:59;8.13;;;2.80;;
56419;SDS011;42323;52.170;7.538;2023-04-25T04:47:27;7.82;;;2.90;;
56419;SDS011;42323;52.170;7.538;2023-04-25T04:49:57;12.57;;;3.35;;
56419;SDS011;42323;52.170;7.538;2023-04-25T04:52:23;8.48;;;3.03;;
56419;SDS011;42323;52.170;7.538;2023-04-25T04:54:50;6.35;;;3.35;;
56419;SDS011;42323;52.170;7.538;2023-04-25T04:57:16;10.68;;;3.63;;
56419;SDS011;42323;52.170;7.538;2023-04-25T04:59:43;15.35;;;3.47;;
56419;SDS011;42323;52.170;7.538;2023-04-25T05:02:10;7.22;;;3.00;;
56419;SDS011;42323;52.170;7.538;2023-04-25T05:04:36;8.80;;;3.58;;
56419;SDS011;42323;52.170;7.538;2023-04-25T05:07:03;8.82;;;2.55;;
56419;SDS011;42323;52.170;7.538;2023-04-25T05:09:30;6.88;;;2.65;;
56419;SDS011;42323;52.170;7.538;2023-04-25T05:11:56;6.25;;;2.88;;
56419;SDS011;42323;52.170;7.538;2023-04-25T05:14:23;8.30;;;3.20;;
56419;SDS011;42323;52.170;7.538;2023-04-25T05:16:49;10.85;;;2.75;;
56419;SDS011;42323;52.170;7.538;2023-04-25T05:19:16;12.52;;;2.70;;
56419;SDS011;42323;52.170;7.538;2023-04-25T05:21:42;4.65;;;2.95;;
56419;SDS011;42323;52.170;7.538;2023-04-25T05:24:09;6.32;;;3.08;;
56419;SDS011;42323;52.170;7.538;2023-04-25T05:26:36;14.80;;;3.53;;
56419;SDS011;42323;52.170;7.538;2023-04-25T05:29:03;8.40;;;2.88;;
56419;SDS011;42323;52.170;7.538;2023-04-25T05:31:30;5.43;;;2.78;;
56419;SDS011;42323;52.170;7.538;2023-04-25T05:33:57;7.18;;;2.72;;
56419;SDS011;42323;52.170;7.538;2023-04-25T05:36:24;9.82;;;3.00;;
56419;SDS011;42323;52.170;7.538;2023-04-25T05:38:50;7.57;;;2.47;;
56419;SDS011;42323;52.170;7.538;2023-04-25T05:41:17;6.43;;;2.55;;
56419;SDS011;42323;52.170;7.538;2023-04-25T05:43:43;8.77;;;2.83;;
56419;SDS011;42323;52.170;7.538;2023-04-25T05:46:13;4.55;;;2.40;;
56419;SDS011;42323;52.170;7.538;2023-04-25T05:48:40;8.05;;;2.80;;
56419;SDS011;42323;52.170;7.538;2023-04-25T05:51:06;6.25;;;2.55;;
56419;SDS011;42323;52.170;7.538;2023-04-25T05:53:33;13.05;;;2.70;;
56419;SDS011;42323;52.170;7.538;2023-04-25T05:55:59;6.90;;;2.75;;
56419;SDS011;42323;52.170;7.538;2023-04-25T05:58:26;8.90;;;2.85;;
56419;SDS011;42323;52.170;7.538;2023-04-25T06:00:53;5.88;;;2.78;;
56419;SDS011;42323;52.170;7.538;2023-04-25T06:03:20;7.03;;;2.33;;
56419;SDS011;42323;52.170;7.538;2023-04-25T06:05:47;7.85;;;3.08;;
56419;SDS011;42323;52.170;7.538;2023-04-25T06:08:13;5.75;;;2.50;;
56419;SDS011;42323;52.170;7.538;2023-04-25T06:10:40;5.80;;;2.10;;
56419;SDS011;42323;52.170;7.538;2023-04-25T06:13:07;7.60;;;2.42;;
56419;SDS011;42323;52.170;7.538;2023-04-25T06:15:33;5.63;;;2.35;;
56419;SDS011;42323;52.170;7.538;2023-04-25T06:18:01;8.35;;;2.42;;
56419;SDS011;42323;52.170;7.538;2023-04-25T06:20:27;4.93;;;2.40;;
56419;SDS011;42323;52.170;7.538;2023-04-25T06:22:54;6.55;;;2.17;;
56419;SDS011;42323;52.170;7.538;2023-04-25T06:25:20;6.18;;;2.33;;
56419;SDS011;42323;52.170;7.538;2023-04-25T06:27:47;5.97;;;2.33;;
56419;SDS011;42323;52.170;7.538;2023-04-25T06:30:14;8.20;;;2.47;;
56419;SDS011;42323;52.170;7.538;2023-04-25T06:32:41;3.97;;;1.88;;
56419;SDS011;42323;52.170;7.538;2023-04-25T06:35:08;3.08;;;1.92;;
56419;SDS011;42323;52.170;7.538;2023-04-25T06:37:34;4.25;;;2.47;;
56419;SDS011;42323;52.170;7.538;2023-04-25T06:40:01;6.72;;;2.22;;
56419;SDS011;42323;52.170;7.538;2023-04-25T06:42:28;6.72;;;2.25;;
56419;SDS011;42323;52.170;7.538;2023-04-25T06:44:55;4.47;;;1.63;;
56419;SDS011;42323;52.170;7.538;2023-04-25T06:47:22;4.72;;;1.92;;
56419;SDS011;42323;52.170;7.538;2023-04-25T06:49:48;7.15;;;2.75;;
56419;SDS011;42323;52.170;7.538;2023-04-25T06:52:15;3.97;;;2.00;;
56419;SDS011;42323;52.170;7.538;2023-04-25T06:54:44;3.70;;;2.08;;
56419;SDS011;42323;52.170;7.538;2023-04-25T06:57:11;5.18;;;2.00;;
56419;SDS011;42323;52.170;7.538;2023-04-25T06:59:37;5.63;;;1.67;;
56419;SDS011;42323;52.170;7.538;2023-04-25T07:02:07;4.35;;;1.80;;
56419;SDS011;42323;52.170;7.538;2023-04-25T07:04:34;7.22;;;1.90;;
56419;SDS011;42323;52.170;7.538;2023-04-25T07:07:00;5.03;;;1.63;;
56419;SDS011;42323;52.170;7.538;2023-04-25T07:09:28;5.32;;;1.70;;
56419;SDS011;42323;52.170;7.538;2023-04-25T07:11:56;4.07;;;2.05;;
56419;SDS011;42323;52.170;7.538;2023-04-25T07:14:22;7.78;;;2.28;;
56419;SDS011;42323;52.170;7.538;2023-04-25T07:16:49;4.72;;;1.90;;
56419;SDS011;42323;52.170;7.538;2023-04-25T07:19:17;7.03;;;1.90;;
56419;SDS011;42323;52.170;7.538;2023-04-25T07:21:43;3.72;;;1.73;;
56419;SDS011;42323;52.170;7.538;2023-04-25T07:24:10;4.93;;;1.67;;
56419;SDS011;42323;52.170;7.538;2023-04-25T07:26:36;4.53;;;1.75;;
56419;SDS011;42323;52.170;7.538;2023-04-25T07:29:03;3.22;;;1.52;;
56419;SDS011;42323;52.170;7.538;2023-04-25T07:31:30;6.32;;;1.90;;
56419;SDS011;42323;52.170;7.538;2023-04-25T07:33:57;5.85;;;1.80;;
56419;SDS011;42323;52.170;7.538;2023-04-25T07:36:26;7.80;;;2.28;;
56419;SDS011;42323;52.170;7.538;2023-04-25T07:38:53;2.50;;;1.75;;
56419;SDS011;42323;52.170;7.538;2023-04-25T07:41:19;3.67;;;1.58;;
56419;SDS011;42323;52.170;7.538;2023-04-25T07:43:46;2.85;;;1.83;;
56419;SDS011;42323;52.170;7.538;2023-04-25T07:46:12;9.02;;;2.00;;
56419;SDS011;42323;52.170;7.538;2023-04-25T07:48:39;5.85;;;1.90;;
56419;SDS011;42323;52.170;7.538;2023-04-25T07:51:05;5.75;;;2.17;;
56419;SDS011;42323;52.170;7.538;2023-04-25T07:53:33;4.88;;;1.92;;
56419;SDS011;42323;52.170;7.538;2023-04-25T07:56:01;2.47;;;1.30;;
56419;SDS011;42323;52.170;7.538;2023-04-25T07:58:27;5.78;;;2.00;;
56419;SDS011;42323;52.170;7.538;2023-04-25T08:00:54;2.78;;;1.38;;
56419;SDS011;42323;52.170;7.538;2023-04-25T08:03:20;11.30;;;2.13;;
56419;SDS011;42323;52.170;7.538;2023-04-25T08:05:47;2.70;;;1.85;;
56419;SDS011;42323;52.170;7.538;2023-04-25T08:08:14;5.60;;;2.17;;
56419;SDS011;42323;52.170;7.538;2023-04-25T08:10:41;4.00;;;1.83;;
56419;SDS011;42323;52.170;7.538;2023-04-25T08:13:08;4.40;;;1.95;;
56419;SDS011;42323;52.170;7.538;2023-04-25T08:15:34;6.18;;;1.70;;
56419;SDS011;42323;52.170;7.538;2023-04-25T08:18:01;6.97;;;1.90;;
56419;SDS011;42323;52.170;7.538;2023-04-25T08:20:28;3.25;;;1.58;;
56419;SDS011;42323;52.170;7.538;2023-04-25T08:22:54;8.82;;;2.08;;
56419;SDS011;42323;52.170;7.538;2023-04-25T08:25:21;3.00;;;2.22;;
56419;SDS011;42323;52.170;7.538;2023-04-25T08:27:47;7.30;;;1.75;;
56419;SDS011;42323;52.170;7.538;2023-04-25T08:30:14;6.78;;;1.98;;
56419;SDS011;42323;52.170;7.538;2023-04-25T08:32:42;5.68;;;1.90;;
56419;SDS011;42323;52.170;7.538;2023-04-25T08:35:08;2.50;;;1.33;;
56419;SDS011;42323;52.170;7.538;2023-04-25T08:37:35;4.15;;;1.88;;
56419;SDS011;42323;52.170;7.538;2023-04-25T08:40:03;5.10;;;2.05;;
56419;SDS011;42323;52.170;7.538;2023-04-25T08:42:33;4.15;;;1.95;;
56419;SDS011;42323;52.170;7.538;2023-04-25T08:45:02;5.25;;;1.48;;
56419;SDS011;42323;52.170;7.538;2023-04-25T08:47:32;4.75;;;1.85;;
56419;SDS011;42323;52.170;7.538;2023-04-25T08:50:01;2.38;;;1.60;;
56419;SDS011;42323;52.170;7.538;2023-04-25T08:52:30;7.28;;;1.80;;
56419;SDS011;42323;52.170;7.538;2023-04-25T08:55:02;3.15;;;1.55;;
56419;SDS011;42323;52.170;7.538;2023-04-25T08:57:30;3.97;;;1.77;;
56419;SDS011;42323;52.170;7.538;2023-04-25T08:59:57;2.72;;;1.60;;
56419;SDS011;42323;52.170;7.538;2023-04-25T09:02:24;4.50;;;2.05;;
56419;SDS011;42323;52.170;7.538;2023-04-25T09:04:51;4.35;;;1.27;;
56419;SDS011;42323;52.170;7.538;2023-04-25T09:07:21;1.50;;;1.10;;
56419;SDS011;42323;52.170;7.538;2023-04-25T09:09:48;2.22;;;1.23;;
56419;SDS011;42323;52.170;7.538;2023-04-25T09:12:14;2.60;;;1.50;;
56419;SDS011;42323;52.170;7.538;2023-04-25T09:14:41;4.07;;;1.30;;
56419;SDS011;42323;52.170;7.538;2023-04-25T09:17:09;4.18;;;1.75;;
56419;SDS011;42323;52.170;7.538;2023-04-25T09:19:36;1.80;;;1.27;;
56419;SDS011;42323;52.170;7.538;2023-04-25T09:22:07;4.03;;;1.30;;
56419;SDS011;42323;52.170;7.538;2023-04-25T09:24:35;4.43;;;1.42;;
56419;SDS011;42323;52.170;7.538;2023-04-25T09:27:07;4.65;;;1.42;;
56419;SDS011;42323;52.170;7.538;2023-04-25T09:29:36;2.30;;;1.00;;
56419;SDS011;42323;52.170;7.538;2023-04-25T09:32:11;2.10;;;1.10;;
56419;SDS011;42323;52.170;7.538;2023-04-25T09:34:41;5.93;;;1.40;;
56419;SDS011;42323;52.170;7.538;2023-04-25T09:37:10;2.15;;;1.15;;
56419;SDS011;42323;52.170;7.538;2023-04-25T09:39:37;3.22;;;1.48;;
56419;SDS011;42323;52.170;7.538;2023-04-25T09:42:05;10.60;;;1.73;;
56419;SDS011;42323;52.170;7.538;2023-04-25T09:44:32;5.30;;;1.60;;
56419;SDS011;42323;52.170;7.538;2023-04-25T09:46:59;3.67;;;1.48;;
56419;SDS011;42323;52.170;7.538;2023-04-25T09:49:26;2.85;;;1.55;;
56419;SDS011;42323;52.170;7.538;2023-04-25T09:51:59;5.18;;;1.80;;
56419;SDS011;42323;52.170;7.538;2023-04-25T09:54:26;5.07;;;1.27;;
56419;SDS011;42323;52.170;7.538;2023-04-25T09:56:53;6.40;;;1.42;;
56419;SDS011;42323;52.170;7.538;2023-04-25T09:59:20;2.20;;;1.40;;
56419;SDS011;42323;52.170;7.538;2023-04-25T10:01:49;2.40;;;1.20;;
56419;SDS011;42323;52.170;7.538;2023-04-25T10:04:20;3.42;;;1.42;;
56419;SDS011;42323;52.170;7.538;2023-04-25T10:06:51;2.40;;;1.23;;
56419;SDS011;42323;52.170;7.538;2023-04-25T10:09:20;1.67;;;1.20;;
56419;SDS011;42323;52.170;7.538;2023-04-25T10:11:47;5.78;;;1.33;;
56419;SDS011;42323;52.170;7.538;2023-04-25T10:14:18;3.35;;;1.48;;
56419;SDS011;42323;52.170;7.538;2023-04-25T10:16:45;2.22;;;1.42;;
56419;SDS011;42323;52.170;7.538;2023-04-25T10:19:13;6.40;;;1.33;;
56419;SDS011;42323;52.170;7.538;2023-04-25T10:21:44;3.38;;;1.38;;
56419;SDS011;42323;52.170;7.538;2023-04-25T10:26:43;2.08;;;1.30;;
56419;SDS011;42323;52.170;7.538;2023-04-25T10:29:09;2.08;;;1.20;;
56419;SDS011;42323;52.170;7.538;2023-04-25T10:31:44;2.90;;;1.33;;
56419;SDS011;42323;52.170;7.538;2023-04-25T10:34:12;4.95;;;1.58;;
56419;SDS011;42323;52.170;7.538;2023-04-25T10:36:39;2.88;;;1.30;;
56419;SDS011;42323;52.170;7.538;2023-04-25T10:39:06;3.13;;;1.33;;
56419;SDS011;42323;52.170;7.538;2023-04-25T10:41:47;2.67;;;1.67;;
56419;SDS011;42323;52.170;7.538;2023-04-25T10:44:19;2.22;;;1.15;;
56419;SDS011;42323;52.170;7.538;2023-04-25T10:46:45;2.92;;;1.40;;
56419;SDS011;42323;52.170;7.538;2023-04-25T10:49:56;4.95;;;1.60;;
56419;SDS011;42323;52.170;7.538;2023-04-25T10:52:13;4.10;;;1.50;;
56419;SDS011;42323;52.170;7.538;2023-04-25T10:54:47;4.60;;;1.40;;
56419;SDS011;42323;52.170;7.538;2023-04-25T10:57:27;2.97;;;1.08;;
56419;SDS011;42323;52.170;7.538;2023-04-25T10:59:58;1.42;;;0.85;;
56419;SDS011;42323;52.170;7.538;2023-04-25T11:02:26;1.42;;;1.10;;
56419;SDS011;42323;52.170;7.538;2023-04-25T11:04:57;3.30;;;1.63;;
56419;SDS011;42323;52.170;7.538;2023-04-25T11:07:28;1.38;;;0.98;;
56419;SDS011;42323;52.170;7.538;2023-04-25T11:10:02;3.72;;;1.50;;
56419;SDS011;42323;52.170;7.538;2023-04-25T11:12:30;1.95;;;1.38;;
56419;SDS011;42323;52.170;7.538;2023-04-25T11:14:58;2.80;;;1.40;;
56419;SDS011;42323;52.170;7.538;2023-04-25T11:17:29;1.60;;;1.20;;
56419;SDS011;42323;52.170;7.538;2023-04-25T11:19:56;2.25;;;1.60;;
56419;SDS011;42323;52.170;7.538;2023-04-25T11:22:26;1.67;;;1.58;;
56419;SDS011;42323;52.170;7.538;2023-04-25T11:24:54;3.17;;;1.30;;
56419;SDS011;42323;52.170;7.538;2023-04-25T11:27:21;4.70;;;1.33;;
56419;SDS011;42323;52.170;7.538;2023-04-25T11:29:48;1.85;;;1.30;;
56419;SDS011;42323;52.170;7.538;2023-04-25T11:32:15;2.40;;;1.40;;
56419;SDS011;42323;52.170;7.538;2023-04-25T11:34:43;2.45;;;1.27;;
56419;SDS011;42323;52.170;7.538;2023-04-25T11:37:11;3.35;;;1.40;;
56419;SDS011;42323;52.170;7.538;2023-04-25T11:39:42;1.63;;;1.00;;
56419;SDS011;42323;52.170;7.538;2023-04-25T11:42:11;2.92;;;1.10;;
56419;SDS011;42323;52.170;7.538;2023-04-25T11:44:58;1.73;;;1.30;;
56419;SDS011;42323;52.170;7.538;2023-04-25T11:47:28;5.53;;;1.13;;
56419;SDS011;42323;52.170;7.538;2023-04-25T11:49:59;3.70;;;0.98;;
56419;SDS011;42323;52.170;7.538;2023-04-25T11:55:10;3.80;;;1.30;;
56419;SDS011;42323;52.170;7.538;2023-04-25T11:57:39;2.20;;;1.45;;
56419;SDS011;42323;52.170;7.538;2023-04-25T12:00:08;2.35;;;1.02;;
56419;SDS011;42323;52.170;7.538;2023-04-25T12:02:35;2.88;;;1.10;;
56419;SDS011;42323;52.170;7.538;2023-04-25T12:05:05;4.15;;;0.93;;
56419;SDS011;42323;52.170;7.538;2023-04-25T12:07:54;3.25;;;1.35;;
56419;SDS011;42323;52.170;7.538;2023-04-25T12:10:21;3.42;;;1.00;;
56419;SDS011;42323;52.170;7.538;2023-04-25T12:12:50;5.03;;;1.40;;
56419;SDS011;42323;52.170;7.538;2023-04-25T12:15:25;5.38;;;1.30;;
56419;SDS011;42323;52.170;7.538;2023-04-25T12:20:25;2.53;;;0.95;;
56419;SDS011;42323;52.170;7.538;2023-04-25T12:22:52;2.75;;;1.33;;
56419;SDS011;42323;52.170;7.538;2023-04-25T12:28:14;3.25;;;1.38;;
56419;SDS011;42323;52.170;7.538;2023-04-25T12:31:04;1.42;;;1.00;;
56419;SDS011;42323;52.170;7.538;2023-04-25T12:36:00;3.47;;;1.10;;
56419;SDS011;42323;52.170;7.538;2023-04-25T12:38:43;3.85;;;1.30;;
56419;SDS011;42323;52.170;7.538;2023-04-25T12:41:53;1.77;;;1.15;;
56419;SDS011;42323;52.170;7.538;2023-04-25T12:44:22;3.70;;;1.65;;
56419;SDS011;42323;52.170;7.538;2023-04-25T12:46:49;1.30;;;1.20;;
56419;SDS011;42323;52.170;7.538;2023-04-25T12:49:16;1.10;;;0.90;;
56419;SDS011;42323;52.170;7.538;2023-04-25T12:51:44;1.75;;;1.17;;
56419;SDS011;42323;52.170;7.538;2023-04-25T12:54:11;5.70;;;1.30;;
56419;SDS011;42323;52.170;7.538;2023-04-25T12:56:37;2.22;;;1.00;;
56419;SDS011;42323;52.170;7.538;2023-04-25T12:59:04;4.53;;;1.17;;
56419;SDS011;42323;52.170;7.538;2023-04-25T13:01:31;1.73;;;1.10;;
56419;SDS011;42323;52.170;7.538;2023-04-25T13:04:00;1.80;;;1.00;;
56419;SDS011;42323;52.170;7.538;2023-04-25T13:06:26;1.80;;;1.38;;
56419;SDS011;42323;52.170;7.538;2023-04-25T13:08:53;2.60;;;1.40;;
56419;SDS011;42323;52.170;7.538;2023-04-25T13:11:20;2.28;;;1.38;;
56419;SDS011;42323;52.170;7.538;2023-04-25T13:13:47;6.95;;;1.98;;
56419;SDS011;42323;52.170;7.538;2023-04-25T13:16:13;2.65;;;1.60;;
56419;SDS011;42323;52.170;7.538;2023-04-25T13:18:40;3.40;;;1.40;;
56419;SDS011;42323;52.170;7.538;2023-04-25T13:21:08;3.42;;;1.98;;
56419;SDS011;42323;52.170;7.538;2023-04-25T13:23:35;3.13;;;1.75;;
56419;SDS011;42323;52.170;7.538;2023-04-25T13:26:02;2.78;;;1.80;;
56419;SDS011;42323;52.170;7.538;2023-04-25T13:28:29;2.88;;;1.40;;
56419;SDS011;42323;52.170;7.538;2023-04-25T13:30:56;3.40;;;1.60;;
56419;SDS011;42323;52.170;7.538;2023-04-25T13:33:22;2.60;;;1.42;;
56419;SDS011;42323;52.170;7.538;2023-04-25T13:35:49;6.32;;;1.60;;
56419;SDS011;42323;52.170;7.538;2023-04-25T13:38:23;5.50;;;1.63;;
56419;SDS011;42323;52.170;7.538;2023-04-25T13:40:51;2.08;;;1.35;;
56419;SDS011;42323;52.170;7.538;2023-04-25T13:43:22;2.10;;;1.58;;
56419;SDS011;42323;52.170;7.538;2023-04-25T13:50:49;4.35;;;1.50;;
56419;SDS011;42323;52.170;7.538;2023-04-25T13:53:16;5.50;;;1.40;;
56419;SDS011;42323;52.170;7.538;2023-04-25T13:55:43;4.03;;;1.48;;
56419;SDS011;42323;52.170;7.538;2023-04-25T13:58:12;3.88;;;1.30;;
56419;SDS011;42323;52.170;7.538;2023-04-25T14:27:40;3.63;;;1.07;;
56419;SDS011;42323;52.170;7.538;2023-04-25T14:30:07;3.63;;;1.30;;
56419;SDS011;42323;52.170;7.538;2023-04-25T14:32:35;3.97;;;1.30;;
56419;SDS011;42323;52.170;7.538;2023-04-25T14:35:01;3.10;;;1.38;;
56419;SDS011;42323;52.170;7.538;2023-04-25T14:37:28;1.50;;;1.13;;
56419;SDS011;42323;52.170;7.538;2023-04-25T14:39:55;2.00;;;1.02;;
56419;SDS011;42323;52.170;7.538;2023-04-25T14:42:21;3.88;;;1.35;;
56419;SDS011;42323;52.170;7.538;2023-04-25T14:44:48;1.75;;;1.15;;
56419;SDS011;42323;52.170;7.538;2023-04-25T14:47:14;2.55;;;1.30;;
56419;SDS011;42323;52.170;7.538;2023-04-25T14:49:42;2.95;;;1.30;;
56419;SDS011;42323;52.170;7.538;2023-04-25T14:52:08;1.95;;;1.08;;
56419;SDS011;42323;52.170;7.538;2023-04-25T14:54:35;1.85;;;1.20;;
56419;SDS011;42323;52.170;7.538;2023-04-25T14:57:01;1.50;;;1.10;;
56419;SDS011;42323;52.170;7.538;2023-04-25T14:59:29;2.42;;;1.50;;
56419;SDS011;42323;52.170;7.538;2023-04-25T15:01:55;5.18;;;1.70;;
56419;SDS011;42323;52.170;7.538;2023-04-25T15:04:25;2.05;;;1.60;;
56419;SDS011;42323;52.170;7.538;2023-04-25T15:06:53;2.50;;;1.40;;
56419;SDS011;42323;52.170;7.538;2023-04-25T15:09:19;2.78;;;1.30;;
56419;SDS011;42323;52.170;7.538;2023-04-25T15:11:46;4.03;;;1.10;;
56419;SDS011;42323;52.170;7.538;2023-04-25T15:14:12;3.20;;;1.40;;
56419;SDS011;42323;52.170;7.538;2023-04-25T15:16:39;3.55;;;1.70;;
56419;SDS011;42323;52.170;7.538;2023-04-25T15:19:05;4.97;;;1.60;;
56419;SDS011;42323;52.170;7.538;2023-04-25T15:21:32;2.22;;;1.33;;
56419;SDS011;42323;52.170;7.538;2023-04-25T15:23:59;5.45;;;1.27;;
56419;SDS011;42323;52.170;7.538;2023-04-25T15:26:26;2.42;;;1.50;;
56419;SDS011;42323;52.170;7.538;2023-04-25T15:28:53;2.80;;;1.27;;
56419;SDS011;42323;52.170;7.538;2023-04-25T15:31:20;2.13;;;1.20;;
56419;SDS011;42323;52.170;7.538;2023-04-25T15:33:48;2.05;;;1.20;;